Time;durP1;ratioP1;P1;durP2;ratioP2;P2;SDS_P1;SDS_P2;PMS_P1;PMS_P2;Temp;Humidity;BMP_temperature;BMP_pressure;BME280_temperature;BME280_humidity;BME280_pressure;Samples;Min_cycle;Max_cycle;Signal;HPM_P1;HPM_P2
2021/05/04 00:02:07;;;;;;;4.27;3.97;;;9.80;99.90;;;;;;4994161;28;20209;-57
2021/05/04 00:04:33;;;;;;;6.27;4.63;;;9.90;99.90;;;;;;4999752;28;20185;-57
2021/05/04 00:06:59;;;;;;;4.40;4.10;;;9.90;99.90;;;;;;4994594;28;20193;-57
2021/05/04 00:09:24;;;;;;;4.23;3.93;;;10.00;99.90;;;;;;4990154;28;20198;-56
2021/05/04 00:11:51;;;;;;;4.13;3.60;;;10.00;99.90;;;;;;5014216;28;20742;-57
2021/05/04 00:14:17;;;;;;;3.83;3.53;;;9.90;99.90;;;;;;5009107;28;20585;-58
2021/05/04 00:16:44;;;;;;;4.40;4.00;;;10.00;99.80;;;;;;5004271;28;20944;-58
2021/05/04 00:19:10;;;;;;;5.30;4.07;;;9.80;99.90;;;;;;4996265;28;20434;-58
2021/05/04 00:21:36;;;;;;;3.90;3.60;;;9.90;99.90;;;;;;4999854;28;20424;-57
2021/05/04 00:24:03;;;;;;;3.93;3.63;;;10.00;99.80;;;;;;4989700;28;20413;-55
2021/05/04 00:26:28;;;;;;;4.17;3.87;;;10.00;99.90;;;;;;4991427;28;20206;-57
2021/05/04 00:28:54;;;;;;;3.97;3.67;;;10.00;99.80;;;;;;4976980;28;20466;-53
2021/05/04 00:31:19;;;;;;;3.90;3.50;;;10.00;99.90;;;;;;4994352;28;20166;-56
2021/05/04 00:33:45;;;;;;;4.67;4.27;;;10.00;99.70;;;;;;4994210;28;20692;-56
2021/05/04 00:36:11;;;;;;;4.43;4.03;;;10.00;99.90;;;;;;4993666;28;20190;-57
2021/05/04 00:38:36;;;;;;;4.20;3.80;;;10.00;99.90;;;;;;4986645;28;20662;-58
2021/05/04 00:41:02;;;;;;;4.23;3.83;;;10.00;99.90;;;;;;4997075;28;20259;-57
2021/05/04 00:43:30;;;;;;;4.30;3.90;;;10.00;99.90;;;;;;4993837;28;20176;-56
2021/05/04 00:45:56;;;;;;;5.37;4.33;;;9.80;99.90;;;;;;4990508;28;20455;-58
2021/05/04 00:48:21;;;;;;;4.80;4.33;;;9.90;99.90;;;;;;4976742;28;20447;-57
2021/05/04 00:50:47;;;;;;;4.57;4.17;;;9.90;99.90;;;;;;4995002;28;20183;-58
2021/05/04 00:53:13;;;;;;;4.93;4.43;;;9.70;99.90;;;;;;4994060;28;20224;-58
2021/05/04 00:55:40;;;;;;;4.53;4.13;;;9.90;99.90;;;;;;4995830;28;20228;-58
2021/05/04 00:58:07;;;;;;;4.60;4.20;;;10.10;99.90;;;;;;5013588;28;20462;-57
2021/05/04 01:00:33;;;;;;;6.07;4.50;;;10.10;99.90;;;;;;5013565;28;20461;-56
2021/05/04 01:02:59;;;;;;;6.63;4.80;;;10.10;99.70;;;;;;5010224;28;20411;-55
2021/05/04 01:05:25;;;;;;;4.50;4.10;;;10.10;99.60;;;;;;4995667;28;20255;-57
2021/05/04 01:07:50;;;;;;;4.47;4.07;;;10.10;99.90;;;;;;4996095;28;20463;-57
2021/05/04 01:10:16;;;;;;;5.33;4.53;;;10.00;99.90;;;;;;5000070;28;20501;-58
2021/05/04 01:12:42;;;;;;;4.90;4.50;;;10.00;99.90;;;;;;4997657;28;20660;-57
2021/05/04 01:15:08;;;;;;;4.83;4.40;;;10.00;99.90;;;;;;4997607;28;20193;-57
2021/05/04 01:17:35;;;;;;;5.07;4.50;;;10.00;99.90;;;;;;4989118;28;20220;-57
2021/05/04 01:20:00;;;;;;;4.80;4.30;;;10.10;99.90;;;;;;4997427;28;20412;-58
2021/05/04 01:22:26;;;;;;;5.03;4.57;;;10.20;99.80;;;;;;4997096;28;20401;-57
2021/05/04 01:24:52;;;;;;;3.87;3.57;;;10.10;99.90;;;;;;5014936;28;20315;-58
2021/05/04 01:27:17;;;;;;;4.10;3.70;;;10.00;99.90;;;;;;5016725;28;20665;-57
2021/05/04 01:29:43;;;;;;;4.60;4.20;;;9.90;99.90;;;;;;5016476;28;20278;-57
2021/05/04 01:32:10;;;;;;;7.40;4.33;;;9.80;99.90;;;;;;5002079;28;20180;-55
2021/05/04 01:34:36;;;;;;;4.37;3.97;;;9.70;99.90;;;;;;4996918;28;20418;-55
2021/05/04 01:37:03;;;;;;;4.47;4.07;;;9.70;99.90;;;;;;5013066;28;20511;-55
2021/05/04 01:39:47;;;;;;;5.03;4.53;;;9.70;99.90;;;;;;4996246;28;20416;-55
2021/05/04 01:42:14;;;;;;;3.87;3.47;;;9.80;99.90;;;;;;4995879;28;20430;-56
2021/05/04 01:44:40;;;;;;;4.57;4.20;;;9.70;99.90;;;;;;4997103;28;20490;-57
2021/05/04 01:47:06;;;;;;;4.63;4.23;;;9.80;99.90;;;;;;4996187;28;20414;-56
2021/05/04 01:49:32;;;;;;;4.67;4.10;;;9.80;99.90;;;;;;4974119;28;20543;-55
2021/05/04 01:51:59;;;;;;;4.20;3.90;;;9.80;99.90;;;;;;4997003;28;20425;-54
2021/05/04 01:54:25;;;;;;;4.37;4.07;;;9.90;99.90;;;;;;5005571;28;20174;-52
2021/05/04 01:56:52;;;;;;;5.43;3.83;;;9.80;99.90;;;;;;5075286;23;20532;-55
2021/05/04 01:59:19;;;;;;;5.67;4.00;;;9.80;99.90;;;;;;5096206;28;20399;-55
2021/05/04 02:01:44;;;;;;;4.63;4.20;;;9.90;99.90;;;;;;5096078;28;20743;-58
2021/05/04 02:04:10;;;;;;;5.20;4.20;;;10.00;99.10;;;;;;5082090;28;20400;-57
2021/05/04 02:06:36;;;;;;;4.63;4.23;;;10.00;99.20;;;;;;5074764;28;20198;-58
2021/05/04 02:09:02;;;;;;;4.27;3.80;;;10.10;99.20;;;;;;5058465;28;20208;-55
2021/05/04 02:11:28;;;;;;;5.30;4.80;;;10.00;99.00;;;;;;5055174;28;20307;-55
2021/05/04 02:13:54;;;;;;;4.23;3.83;;;9.90;99.80;;;;;;5055823;28;20486;-55
2021/05/04 02:16:19;;;;;;;5.80;3.53;;;9.90;99.90;;;;;;5055454;28;20188;-57
2021/05/04 02:18:45;;;;;;;3.60;3.30;;;9.90;99.90;;;;;;5055334;28;20162;-57
2021/05/04 02:21:10;;;;;;;3.40;3.13;;;9.90;99.90;;;;;;5055058;28;20249;-57
2021/05/04 02:23:36;;;;;;;4.50;4.10;;;9.90;99.90;;;;;;5055217;28;20584;-57
2021/05/04 02:26:02;;;;;;;4.10;3.70;;;9.80;99.90;;;;;;5054878;28;20253;-57
2021/05/04 02:28:28;;;;;;;4.47;3.90;;;9.80;99.80;;;;;;5049467;28;20957;-56
2021/05/04 02:30:54;;;;;;;3.53;3.23;;;9.90;99.90;;;;;;5055962;28;20421;-57
2021/05/04 02:33:19;;;;;;;4.30;4.00;;;10.00;99.20;;;;;;5055556;28;20168;-57
2021/05/04 02:35:45;;;;;;;4.40;3.97;;;10.00;99.30;;;;;;5074739;28;20163;-57
2021/05/04 02:38:10;;;;;;;4.27;3.87;;;10.00;99.20;;;;;;5064296;28;20171;-56
2021/05/04 02:40:36;;;;;;;4.57;4.17;;;10.00;99.00;;;;;;5057095;28;20681;-57
2021/05/04 02:43:02;;;;;;;4.30;4.00;;;10.00;98.90;;;;;;5054327;28;20205;-57
2021/05/04 02:45:27;;;;;;;3.97;3.57;;;10.00;99.10;;;;;;5055157;28;20590;-57
2021/05/04 02:47:53;;;;;;;3.77;3.47;;;10.10;99.50;;;;;;5074916;28;20694;-54
2021/05/04 02:50:19;;;;;;;3.77;3.47;;;10.00;99.00;;;;;;5074691;28;20177;-57
2021/05/04 02:52:44;;;;;;;3.40;3.20;;;9.90;99.70;;;;;;5074954;28;20260;-54
2021/05/04 02:55:10;;;;;;;4.40;3.60;;;9.90;99.90;;;;;;5073354;28;20167;-59
2021/05/04 02:57:35;;;;;;;3.87;3.47;;;9.90;99.70;;;;;;5077603;28;20759;-56
2021/05/04 03:00:02;;;;;;;3.87;3.60;;;10.00;99.30;;;;;;5075115;28;20199;-56
2021/05/04 03:02:28;;;;;;;3.60;3.30;;;10.00;99.40;;;;;;5091207;28;20163;-54
2021/05/04 03:04:53;;;;;;;3.70;3.40;;;10.10;99.30;;;;;;5095224;28;20466;-57
2021/05/04 03:07:19;;;;;;;4.17;3.80;;;10.10;99.00;;;;;;5086264;28;20182;-57
2021/05/04 03:09:44;;;;;;;3.73;3.40;;;10.20;99.20;;;;;;5053149;28;20613;-57
2021/05/04 03:12:10;;;;;;;3.47;3.10;;;10.10;99.00;;;;;;5054001;28;20272;-55
2021/05/04 03:14:36;;;;;;;3.60;3.40;;;10.10;99.00;;;;;;5058840;28;20185;-53
2021/05/04 03:17:01;;;;;;;3.57;3.23;;;10.00;98.80;;;;;;5054180;28;20226;-55
2021/05/04 03:19:27;;;;;;;3.60;3.30;;;10.10;99.10;;;;;;5056904;28;20180;-57
2021/05/04 03:21:53;;;;;;;4.50;3.27;;;10.10;99.10;;;;;;5054196;28;20222;-58
2021/05/04 03:24:18;;;;;;;3.77;3.47;;;10.10;99.00;;;;;;5054040;28;20180;-56
2021/05/04 03:26:45;;;;;;;3.60;3.13;;;10.00;99.60;;;;;;5053412;28;20202;-58
2021/05/04 03:29:11;;;;;;;3.67;3.37;;;10.00;99.00;;;;;;5053951;28;20199;-57
2021/05/04 03:31:37;;;;;;;3.80;3.53;;;10.00;98.90;;;;;;5053940;28;20421;-58
2021/05/04 03:34:02;;;;;;;3.27;3.07;;;9.90;99.30;;;;;;5053937;28;20655;-55
2021/05/04 03:36:28;;;;;;;3.10;2.80;;;10.00;99.10;;;;;;5053084;28;20441;-57
2021/05/04 03:38:54;;;;;;;3.93;3.27;;;10.00;98.50;;;;;;5052979;28;20178;-57
2021/05/04 03:41:19;;;;;;;3.50;3.20;;;10.10;98.50;;;;;;5053606;28;20186;-58
2021/05/04 03:43:45;;;;;;;3.90;2.97;;;10.10;98.30;;;;;;5054033;28;20256;-59
2021/05/04 03:46:10;;;;;;;3.50;3.20;;;10.20;98.20;;;;;;5035500;28;20200;-58
2021/05/04 03:48:36;;;;;;;4.10;3.20;;;10.20;98.00;;;;;;5047897;28;20199;-58
2021/05/04 03:51:02;;;;;;;4.10;2.93;;;10.20;98.00;;;;;;5054990;28;20656;-58
2021/05/04 03:53:27;;;;;;;3.57;3.27;;;10.20;98.20;;;;;;5055379;28;20194;-58
2021/05/04 03:55:53;;;;;;;3.57;3.27;;;10.30;98.20;;;;;;5073520;28;20195;-57
2021/05/04 03:58:19;;;;;;;3.37;3.07;;;10.30;97.90;;;;;;5073581;28;20163;-58
2021/05/04 04:00:44;;;;;;;3.47;3.17;;;10.30;98.10;;;;;;5073344;28;20541;-58
2021/05/04 04:03:10;;;;;;;3.67;2.77;;;10.30;97.90;;;;;;5065971;28;20267;-58
2021/05/04 04:05:36;;;;;;;3.27;3.07;;;10.30;98.00;;;;;;5054434;28;20181;-58
2021/05/04 04:08:01;;;;;;;3.50;3.07;;;10.40;98.00;;;;;;5065011;28;20200;-56
2021/05/04 04:10:27;;;;;;;4.30;2.90;;;10.40;97.70;;;;;;5054258;28;20205;-58
2021/05/04 04:12:54;;;;;;;3.67;2.90;;;10.30;97.60;;;;;;5053274;28;20177;-57
2021/05/04 04:15:19;;;;;;;3.80;3.50;;;10.40;97.70;;;;;;5053689;28;20653;-56
2021/05/04 04:17:45;;;;;;;4.87;3.00;;;10.40;97.60;;;;;;5053180;28;20466;-57
2021/05/04 04:20:11;;;;;;;3.03;2.83;;;10.40;97.70;;;;;;5053154;28;20261;-55
2021/05/04 04:22:36;;;;;;;5.30;3.17;;;10.40;97.50;;;;;;5052318;28;20182;-53
2021/05/04 04:25:03;;;;;;;2.87;2.67;;;10.50;97.50;;;;;;5053342;28;20628;-57
2021/05/04 04:27:29;;;;;;;3.40;3.10;;;10.40;97.50;;;;;;5048216;28;20227;-59
2021/05/04 04:29:55;;;;;;;3.63;2.87;;;10.50;97.50;;;;;;5051230;28;20421;-57
2021/05/04 04:32:20;;;;;;;3.23;2.93;;;10.50;97.60;;;;;;5053013;28;20679;-57
2021/05/04 04:34:48;;;;;;;3.93;3.47;;;10.40;97.90;;;;;;5055156;28;20205;-57
2021/05/04 04:37:13;;;;;;;3.23;2.63;;;10.50;97.90;;;;;;5051640;28;20181;-56
2021/05/04 04:39:39;;;;;;;3.43;3.13;;;10.60;97.90;;;;;;5052224;28;20749;-57
2021/05/04 04:42:05;;;;;;;2.97;2.67;;;10.60;97.40;;;;;;5064113;28;20192;-57
2021/05/04 04:44:31;;;;;;;4.30;3.10;;;10.50;97.20;;;;;;5073271;28;20243;-56
2021/05/04 04:46:56;;;;;;;3.13;2.83;;;10.60;97.70;;;;;;5060742;28;20629;-56
2021/05/04 04:49:22;;;;;;;3.30;3.00;;;10.60;97.60;;;;;;5055796;28;20459;-57
2021/05/04 04:51:48;;;;;;;3.20;2.90;;;10.60;97.30;;;;;;5093048;28;20172;-57
2021/05/04 04:54:14;;;;;;;5.20;3.63;;;10.70;97.70;;;;;;5062451;28;20217;-57
2021/05/04 04:56:40;;;;;;;4.73;3.33;;;10.60;97.70;;;;;;5052204;28;20474;-56
2021/05/04 04:59:06;;;;;;;3.43;3.13;;;10.60;97.70;;;;;;5052652;28;20408;-55
2021/05/04 05:01:36;;;;;;;4.27;3.10;;;10.60;97.60;;;;;;5052773;28;20406;-57
2021/05/04 05:04:03;;;;;;;4.90;4.23;;;10.70;97.40;;;;;;5052823;28;20830;-56
2021/05/04 05:06:28;;;;;;;5.23;3.37;;;10.80;97.40;;;;;;5052513;28;20531;-55
2021/05/04 05:08:54;;;;;;;3.20;2.90;;;10.90;97.30;;;;;;5045804;28;20563;-56
2021/05/04 05:11:20;;;;;;;3.50;2.90;;;10.90;97.40;;;;;;5053085;28;20949;-54
2021/05/04 05:13:47;;;;;;;4.00;3.00;;;11.00;97.70;;;;;;5055904;28;20621;-55
2021/05/04 05:16:14;;;;;;;2.90;2.60;;;11.10;97.20;;;;;;5068899;28;20522;-54
2021/05/04 05:18:40;;;;;;;3.40;3.10;;;11.10;97.10;;;;;;5072507;28;20416;-55
2021/05/04 05:21:08;;;;;;;3.27;3.07;;;11.00;96.90;;;;;;5070167;28;20408;-59
2021/05/04 05:23:34;;;;;;;3.40;3.13;;;11.00;97.40;;;;;;5062976;28;20478;-57
2021/05/04 05:26:01;;;;;;;4.93;3.20;;;11.00;97.40;;;;;;5056262;28;20510;-58
2021/05/04 05:28:27;;;;;;;3.37;3.07;;;11.10;97.20;;;;;;5072554;28;20525;-57
2021/05/04 05:30:53;;;;;;;3.50;3.17;;;11.10;97.30;;;;;;5072129;28;20411;-57
2021/05/04 05:33:19;;;;;;;5.43;2.90;;;11.30;97.30;;;;;;5072194;28;20195;-53
2021/05/04 05:35:45;;;;;;;2.80;2.60;;;11.20;97.10;;;;;;5071758;28;20432;-59
2021/05/04 05:38:11;;;;;;;2.97;2.77;;;11.20;97.10;;;;;;5062151;28;20432;-57
2021/05/04 05:40:36;;;;;;;3.40;3.10;;;11.30;97.10;;;;;;5051751;28;20175;-57
2021/05/04 05:43:02;;;;;;;3.17;2.97;;;11.30;97.20;;;;;;5051860;28;20540;-57
2021/05/04 05:45:28;;;;;;;3.43;3.13;;;11.40;97.10;;;;;;5051479;28;20180;-53
2021/05/04 05:47:53;;;;;;;4.07;3.00;;;11.30;97.30;;;;;;5046099;28;20203;-52
2021/05/04 05:50:19;;;;;;;4.07;2.77;;;11.30;96.80;;;;;;5055038;28;20545;-55
2021/05/04 05:52:45;;;;;;;3.30;3.00;;;11.50;96.90;;;;;;5055204;28;20174;-56
2021/05/04 05:55:11;;;;;;;5.93;3.83;;;11.60;97.10;;;;;;5070989;28;20277;-56
2021/05/04 05:57:36;;;;;;;4.30;3.77;;;11.70;96.50;;;;;;5074878;28;20212;-58
2021/05/04 06:00:05;;;;;;;3.90;3.20;;;11.70;96.70;;;;;;5055262;28;20512;-57
2021/05/04 06:02:30;;;;;;;3.30;3.00;;;11.80;96.60;;;;;;5055415;28;20801;-57
2021/05/04 06:04:56;;;;;;;3.77;2.40;;;12.00;96.70;;;;;;5055528;28;20413;-58
2021/05/04 06:07:21;;;;;;;4.30;2.87;;;12.10;96.40;;;;;;5054621;28;20412;-58
2021/05/04 06:09:47;;;;;;;3.20;2.63;;;12.10;96.40;;;;;;5055382;28;20191;-56
2021/05/04 06:12:13;;;;;;;3.50;3.20;;;12.30;96.10;;;;;;5055302;28;20174;-55
2021/05/04 06:14:38;;;;;;;3.97;3.57;;;12.30;96.50;;;;;;5055296;28;20229;-56
2021/05/04 06:17:04;;;;;;;3.40;3.10;;;12.40;96.00;;;;;;5055435;28;20189;-57
2021/05/04 06:19:30;;;;;;;5.47;3.10;;;12.60;95.30;;;;;;5073263;28;20263;-58
2021/05/04 06:21:55;;;;;;;3.03;2.37;;;12.70;95.30;;;;;;5062116;28;20194;-58
2021/05/04 06:24:21;;;;;;;2.80;2.60;;;12.90;95.20;;;;;;5055125;28;20174;-58
2021/05/04 06:26:47;;;;;;;3.30;3.00;;;12.90;94.90;;;;;;5055118;28;20224;-58
2021/05/04 06:29:12;;;;;;;3.43;2.70;;;12.90;94.80;;;;;;5054896;28;20241;-57
2021/05/04 06:31:38;;;;;;;2.63;2.43;;;13.00;94.60;;;;;;5055479;28;20190;-57
2021/05/04 06:34:04;;;;;;;5.47;2.97;;;13.20;94.30;;;;;;5055403;28;20167;-58
2021/05/04 06:36:30;;;;;;;5.43;2.77;;;13.30;94.00;;;;;;5054914;28;20209;-56
2021/05/04 06:38:56;;;;;;;4.27;2.70;;;13.50;93.70;;;;;;5054738;28;20455;-55
2021/05/04 06:41:21;;;;;;;3.80;3.00;;;13.60;93.90;;;;;;5055186;28;20272;-55
2021/05/04 06:43:47;;;;;;;3.40;2.70;;;13.40;93.10;;;;;;5069257;28;20203;-57
2021/05/04 06:46:12;;;;;;;3.10;2.60;;;13.40;93.50;;;;;;5074947;28;20670;-57
2021/05/04 06:48:38;;;;;;;3.80;2.60;;;13.50;94.00;;;;;;5066082;28;20639;-59
2021/05/04 06:51:04;;;;;;;2.90;2.57;;;13.50;93.70;;;;;;5054546;28;20217;-58
2021/05/04 06:53:29;;;;;;;2.87;2.67;;;13.60;93.50;;;;;;5054694;28;20178;-59
2021/05/04 06:55:55;;;;;;;7.90;2.93;;;13.70;93.10;;;;;;5054138;28;20675;-58
2021/05/04 06:58:20;;;;;;;3.10;2.80;;;13.70;92.60;;;;;;5053832;28;20180;-58
2021/05/04 07:00:46;;;;;;;3.83;3.07;;;13.80;93.10;;;;;;5053917;28;20178;-57
2021/05/04 07:03:12;;;;;;;2.40;2.17;;;13.70;92.20;;;;;;5054088;28;20178;-57
2021/05/04 07:05:37;;;;;;;3.60;2.60;;;13.90;92.30;;;;;;5054377;28;20171;-58
2021/05/04 07:08:03;;;;;;;5.10;2.67;;;14.00;92.10;;;;;;5053551;28;20609;-58
2021/05/04 07:10:29;;;;;;;2.47;2.20;;;13.90;91.40;;;;;;5054216;28;20170;-55
2021/05/04 07:12:55;;;;;;;3.10;2.63;;;13.90;91.30;;;;;;5053225;28;20414;-58
2021/05/04 07:15:20;;;;;;;2.63;2.43;;;13.90;91.20;;;;;;5035001;28;20273;-57
2021/05/04 07:17:46;;;;;;;2.53;2.30;;;14.00;91.30;;;;;;5052591;28;20232;-60
2021/05/04 07:20:12;;;;;;;3.17;2.37;;;14.30;91.80;;;;;;5052212;28;20188;-57
2021/05/04 07:22:38;;;;;;;2.33;2.13;;;14.30;91.40;;;;;;5050859;28;20653;-58
2021/05/04 07:25:05;;;;;;;2.43;2.03;;;14.40;92.10;;;;;;5053953;28;20398;-58
2021/05/04 07:27:30;;;;;;;2.30;2.10;;;14.50;91.30;;;;;;5053985;28;20186;-57
2021/05/04 07:29:56;;;;;;;3.03;2.40;;;14.60;90.70;;;;;;5053288;28;20943;-56
2021/05/04 07:32:22;;;;;;;2.93;2.03;;;14.80;90.20;;;;;;5052754;28;20669;-56
2021/05/04 07:34:49;;;;;;;4.40;2.27;;;14.90;90.10;;;;;;5054205;28;20181;-58
2021/05/04 07:37:14;;;;;;;2.60;2.30;;;15.00;90.20;;;;;;5053901;28;20197;-58
2021/05/04 07:39:41;;;;;;;2.53;2.30;;;15.10;90.90;;;;;;5053690;28;20927;-56
2021/05/04 07:42:07;;;;;;;2.83;2.37;;;15.10;89.80;;;;;;5054055;28;20170;-57
2021/05/04 07:44:33;;;;;;;5.33;2.80;;;15.20;89.50;;;;;;5053393;28;20415;-56
2021/05/04 07:46:59;;;;;;;4.17;1.97;;;15.30;88.50;;;;;;5053513;28;20412;-57
2021/05/04 07:49:34;;;;;;;3.20;2.00;;;15.80;88.30;;;;;;5053645;28;20224;-58
2021/05/04 07:52:00;;;;;;;3.37;1.93;;;16.00;87.40;;;;;;5053595;28;20387;-56
2021/05/04 07:54:25;;;;;;;5.70;2.20;;;15.90;84.30;;;;;;5053663;28;20847;-57
2021/05/04 07:56:51;;;;;;;3.30;2.30;;;15.90;84.80;;;;;;5063993;22;20217;-57
2021/05/04 07:59:17;;;;;;;2.47;2.03;;;15.90;84.60;;;;;;4996476;28;20683;-56
2021/05/04 08:01:42;;;;;;;2.20;1.97;;;16.00;84.00;;;;;;5014232;28;20171;-55
2021/05/04 08:04:08;;;;;;;2.97;2.00;;;16.00;82.70;;;;;;5013789;28;20175;-58
2021/05/04 08:06:33;;;;;;;2.80;1.87;;;16.10;82.90;;;;;;5013979;28;20194;-57
2021/05/04 08:09:00;;;;;;;2.53;2.13;;;16.10;82.50;;;;;;5013900;28;20196;-58
2021/05/04 08:11:27;;;;;;;2.27;2.10;;;16.00;81.20;;;;;;5014231;28;20198;-59
2021/05/04 08:13:53;;;;;;;2.87;2.20;;;16.10;82.00;;;;;;5014146;28;20503;-54
2021/05/04 08:16:19;;;;;;;2.40;2.00;;;16.10;80.80;;;;;;5014351;28;20921;-55
2021/05/04 08:18:47;;;;;;;3.93;1.87;;;16.20;79.90;;;;;;5014919;28;20191;-55
2021/05/04 08:21:13;;;;;;;3.30;2.10;;;16.20;79.90;;;;;;5013753;28;20412;-56
2021/05/04 08:23:39;;;;;;;2.73;2.30;;;16.10;79.20;;;;;;5013790;28;20408;-54
2021/05/04 08:26:05;;;;;;;2.53;2.20;;;16.20;80.50;;;;;;5014101;28;20850;-57
2021/05/04 08:28:30;;;;;;;2.47;2.07;;;16.20;81.50;;;;;;5013218;28;20291;-56
2021/05/04 08:30:56;;;;;;;3.63;2.00;;;16.30;80.20;;;;;;5013685;28;20162;-58
2021/05/04 08:33:22;;;;;;;2.67;1.97;;;16.30;80.10;;;;;;5013883;28;20281;-56
2021/05/04 08:35:47;;;;;;;4.37;2.20;;;16.30;79.60;;;;;;5014018;28;20199;-58
2021/05/04 08:38:14;;;;;;;3.93;2.30;;;16.60;80.60;;;;;;5013636;28;20240;-56
2021/05/04 08:40:40;;;;;;;2.20;2.00;;;16.70;78.60;;;;;;5006672;28;20179;-58
2021/05/04 08:43:05;;;;;;;4.20;2.00;;;16.90;77.20;;;;;;5004736;28;20987;-58
2021/05/04 08:45:33;;;;;;;2.10;1.63;;;17.00;77.60;;;;;;5014054;28;20500;-58
2021/05/04 08:47:59;;;;;;;3.20;1.83;;;17.00;77.20;;;;;;5013531;28;20190;-57
2021/05/04 08:50:24;;;;;;;4.53;2.10;;;16.90;77.50;;;;;;5013795;28;20406;-57
2021/05/04 08:52:51;;;;;;;2.73;2.53;;;16.90;78.10;;;;;;5013664;28;20770;-59
2021/05/04 08:55:18;;;;;;;3.30;2.23;;;17.10;79.20;;;;;;5013727;28;20158;-58
2021/05/04 08:57:44;;;;;;;3.93;2.00;;;17.20;76.70;;;;;;5013599;28;20525;-60
2021/05/04 09:00:14;;;;;;;2.80;2.20;;;17.50;75.90;;;;;;5014023;28;20454;-59
2021/05/04 09:03:02;;;;;;;3.77;2.50;;;17.60;77.80;;;;;;4996093;28;20252;-59
2021/05/04 09:05:39;;;;;;;3.67;2.10;;;17.20;76.00;;;;;;5013556;28;20406;-59
2021/05/04 09:08:10;;;;;;;2.40;2.20;;;17.10;77.30;;;;;;5013472;28;20526;-58
2021/05/04 09:10:52;;;;;;;2.70;2.30;;;17.30;76.50;;;;;;5013881;28;20410;-58
2021/05/04 09:13:45;;;;;;;2.93;2.37;;;17.60;75.90;;;;;;5013908;28;20386;-55
2021/05/04 09:18:41;;;;;;;2.63;1.90;;;17.30;76.00;;;;;;5014702;28;20494;-58
2021/05/04 09:21:11;;;;;;;3.70;1.80;;;17.40;75.20;;;;;;5019576;28;20401;-58
2021/05/04 09:23:41;;;;;;;3.60;2.30;;;17.40;75.60;;;;;;5023373;28;20828;-55
2021/05/04 09:26:20;;;;;;;2.47;2.17;;;17.60;76.20;;;;;;5027856;28;20398;-56
2021/05/04 09:28:51;;;;;;;2.57;2.10;;;17.70;76.70;;;;;;5026016;28;20497;-59
2021/05/04 09:31:27;;;;;;;4.07;2.27;;;17.30;74.50;;;;;;5026887;28;20414;-58
2021/05/04 09:33:53;;;;;;;1.73;1.63;;;17.40;75.90;;;;;;5026069;28;20379;-57
2021/05/04 09:36:37;;;;;;;2.50;2.30;;;17.60;75.80;;;;;;5025582;28;20422;-56
2021/05/04 09:39:04;;;;;;;1.80;1.70;;;17.90;73.90;;;;;;5021632;28;20407;-59
2021/05/04 09:41:30;;;;;;;6.73;2.10;;;17.90;73.80;;;;;;5017293;28;20410;-60
2021/05/04 09:43:56;;;;;;;4.83;1.83;;;17.90;72.50;;;;;;5017521;28;20411;-59
2021/05/04 09:46:48;;;;;;;2.97;1.87;;;18.30;74.00;;;;;;5016961;28;20790;-59
2021/05/04 09:49:33;;;;;;;3.00;1.90;;;18.40;71.40;;;;;;5016643;28;20521;-59
2021/05/04 09:55:26;;;;;;;6.83;2.47;;;18.00;71.30;;;;;;4938315;28;21044;-59
2021/05/04 09:57:52;;;;;;;3.13;1.70;;;17.80;71.00;;;;;;5016217;28;20422;-58
2021/05/04 10:00:23;;;;;;;2.40;2.20;;;17.80;71.30;;;;;;5016199;28;20191;-59
2021/05/04 10:02:50;;;;;;;3.10;2.10;;;17.80;72.50;;;;;;5017009;28;20383;-59
2021/05/04 10:05:18;;;;;;;3.00;1.83;;;18.20;71.70;;;;;;5016227;28;20411;-57
2021/05/04 10:07:45;;;;;;;5.97;2.20;;;18.60;72.60;;;;;;5015862;28;20460;-59
2021/05/04 10:10:12;;;;;;;2.37;2.00;;;18.50;70.20;;;;;;5016604;28;20415;-58
2021/05/04 10:12:40;;;;;;;4.20;2.30;;;18.50;70.60;;;;;;5016294;28;20403;-58
2021/05/04 10:15:11;;;;;;;2.27;2.07;;;18.30;68.70;;;;;;5016017;28;20411;-61
2021/05/04 10:17:38;;;;;;;3.10;2.13;;;18.30;69.10;;;;;;4998340;28;20790;-60
2021/05/04 10:20:15;;;;;;;7.13;2.30;;;18.50;70.90;;;;;;5015770;28;20403;-59
2021/05/04 10:22:41;;;;;;;5.07;1.90;;;18.80;70.00;;;;;;5016072;28;20423;-58
2021/05/04 10:25:13;;;;;;;2.20;2.00;;;18.50;66.90;;;;;;4997256;28;20441;-60
2021/05/04 10:27:39;;;;;;;3.03;1.90;;;18.40;66.10;;;;;;5015817;28;20230;-58
2021/05/04 10:30:06;;;;;;;2.30;2.10;;;18.30;67.00;;;;;;5016102;28;20416;-59
2021/05/04 10:32:55;;;;;;;2.27;2.07;;;18.20;68.00;;;;;;5014949;28;20413;-59
2021/05/04 10:35:33;;;;;;;3.70;2.07;;;18.30;68.10;;;;;;5015673;28;20482;-61
2021/05/04 10:38:01;;;;;;;3.90;2.70;;;18.60;67.70;;;;;;5015103;28;20897;-60
2021/05/04 10:40:31;;;;;;;2.40;2.20;;;18.80;67.70;;;;;;5014381;28;20791;-59
2021/05/04 10:43:22;;;;;;;5.00;2.10;;;18.70;67.40;;;;;;5015548;28;20415;-60
2021/05/04 10:45:56;;;;;;;4.30;2.40;;;18.80;66.00;;;;;;5015711;28;20410;-60
2021/05/04 10:48:39;;;;;;;5.70;2.20;;;19.20;66.40;;;;;;5015695;28;20434;-58
2021/05/04 10:51:12;;;;;;;1.50;1.40;;;19.20;65.90;;;;;;5014174;28;20779;-59
2021/05/04 10:53:52;;;;;;;2.43;2.10;;;19.40;68.40;;;;;;5015406;28;20414;-59
2021/05/04 10:56:33;;;;;;;1.90;1.80;;;19.50;69.10;;;;;;5014847;28;20493;-61
2021/05/04 10:58:59;;;;;;;2.47;2.27;;;19.40;65.50;;;;;;5015562;28;20399;-60
2021/05/04 11:01:25;;;;;;;3.40;2.53;;;19.00;66.00;;;;;;5015100;28;20418;-59
2021/05/04 11:04:00;;;;;;;2.43;2.20;;;18.90;65.90;;;;;;5014404;28;20172;-56
2021/05/04 11:06:26;;;;;;;3.30;2.00;;;19.10;64.60;;;;;;5015086;28;20194;-60
2021/05/04 11:08:51;;;;;;;3.40;2.00;;;19.30;65.10;;;;;;5015267;28;20442;-59
2021/05/04 11:11:33;;;;;;;2.93;2.10;;;19.30;64.60;;;;;;5015373;28;20187;-60
2021/05/04 11:14:21;;;;;;;2.47;1.93;;;19.00;65.70;;;;;;5015449;28;20235;-61
2021/05/04 11:16:52;;;;;;;3.50;2.50;;;19.30;64.80;;;;;;5013819;28;20439;-58
2021/05/04 11:19:34;;;;;;;2.33;2.13;;;18.80;64.30;;;;;;5014998;28;20407;-56
2021/05/04 11:21:59;;;;;;;3.60;2.10;;;18.60;66.30;;;;;;5015536;28;20411;-56
2021/05/04 11:24:36;;;;;;;2.70;1.60;;;18.60;65.70;;;;;;5014890;28;20451;-58
2021/05/04 11:27:05;;;;;;;3.90;1.97;;;18.40;66.30;;;;;;5015203;28;20192;-56
2021/05/04 11:29:31;;;;;;;2.80;2.30;;;18.50;65.40;;;;;;5014071;28;20549;-58
2021/05/04 11:32:12;;;;;;;2.27;2.07;;;18.80;65.10;;;;;;5016550;28;20461;-59
2021/05/04 11:34:43;;;;;;;2.57;1.90;;;18.80;67.50;;;;;;5013779;28;20418;-60
2021/05/04 11:37:11;;;;;;;2.63;2.00;;;18.60;67.00;;;;;;4995568;28;20534;-60
2021/05/04 11:40:02;;;;;;;2.10;1.87;;;18.70;66.40;;;;;;5014533;28;20490;-59
2021/05/04 11:42:47;;;;;;;4.53;2.10;;;18.50;67.80;;;;;;5013203;28;20445;-58
2021/05/04 11:45:18;;;;;;;1.97;1.83;;;18.70;68.60;;;;;;5014231;28;20406;-58
2021/05/04 11:47:47;;;;;;;4.80;2.57;;;19.10;68.20;;;;;;5013627;28;20423;-58
2021/05/04 11:50:17;;;;;;;3.10;2.07;;;19.00;67.30;;;;;;5014112;28;20477;-58
2021/05/04 11:52:45;;;;;;;2.53;2.30;;;18.70;67.50;;;;;;5013694;28;20403;-59
2021/05/04 11:55:11;;;;;;;5.40;3.53;;;18.80;68.70;;;;;;5013130;28;20477;-58
2021/05/04 11:57:38;;;;;;;2.43;2.20;;;18.50;69.30;;;;;;5013998;28;20935;-60
2021/05/04 12:00:06;;;;;;;3.67;1.90;;;18.70;69.20;;;;;;5014261;28;20166;-57
2021/05/04 12:02:33;;;;;;;2.53;2.33;;;19.10;69.00;;;;;;5014235;28;20419;-59
2021/05/04 12:04:59;;;;;;;5.57;2.80;;;19.00;67.60;;;;;;5014419;28;20414;-57
2021/05/04 12:07:40;;;;;;;2.67;2.10;;;18.90;68.20;;;;;;5013928;28;20419;-59
2021/05/04 12:10:28;;;;;;;4.10;2.20;;;18.80;68.00;;;;;;5012426;28;20861;-58
2021/05/04 12:12:55;;;;;;;3.43;2.40;;;18.80;67.80;;;;;;5013991;28;20475;-59
2021/05/04 12:15:26;;;;;;;4.73;2.50;;;18.40;70.50;;;;;;5013465;28;20423;-60
2021/05/04 12:18:17;;;;;;;2.80;2.60;;;18.40;70.50;;;;;;5013928;28;20423;-57
2021/05/04 12:20:46;;;;;;;2.80;2.60;;;18.00;70.90;;;;;;4997221;28;20903;-60
2021/05/04 12:23:23;;;;;;;5.03;2.30;;;17.80;72.70;;;;;;5013723;28;20452;-58
2021/05/04 12:25:52;;;;;;;3.17;2.63;;;17.50;74.00;;;;;;5013501;28;20411;-59
2021/05/04 12:28:21;;;;;;;3.50;1.70;;;17.40;74.70;;;;;;5012496;28;20192;-56
2021/05/04 12:30:49;;;;;;;4.50;3.00;;;17.50;75.50;;;;;;5014203;28;20764;-60
2021/05/04 12:33:18;;;;;;;3.10;2.10;;;17.50;75.70;;;;;;4996035;28;20418;-60
2021/05/04 12:36:10;;;;;;;3.50;2.50;;;17.70;76.30;;;;;;5012369;28;20501;-58
2021/05/04 12:38:52;;;;;;;2.00;1.80;;;17.50;79.20;;;;;;5012647;28;20426;-57
2021/05/04 12:41:24;;;;;;;1.92;1.83;;;17.70;81.50;;;;;;5012379;28;20420;-55
2021/05/04 12:46:49;;;;;;;2.70;2.10;;;18.00;81.10;;;;;;4993701;28;20800;-57
2021/05/04 12:49:15;;;;;;;6.03;2.23;;;18.70;78.40;;;;;;4993748;28;20481;-59
2021/05/04 12:51:46;;;;;;;2.43;2.23;;;18.70;78.10;;;;;;4994404;28;20901;-60
2021/05/04 12:54:18;;;;;;;2.23;2.03;;;18.60;77.70;;;;;;5005418;28;20468;-59
2021/05/04 12:56:45;;;;;;;4.20;2.57;;;18.30;78.70;;;;;;5013436;28;20435;-60
2021/05/04 12:59:13;;;;;;;2.50;2.30;;;18.60;81.00;;;;;;5013827;28;20457;-59
2021/05/04 13:01:47;;;;;;;2.37;1.83;;;19.20;79.00;;;;;;5017205;28;20436;-59